Time;durP1;ratioP1;P1;durP2;ratioP2;P2;SDS_P1;SDS_P2;PMS_P1;PMS_P2;Temp;Humidity;BMP_temperature;BMP_pressure;BME280_temperature;BME280_humidity;BME280_pressure;Samples;Min_cycle;Max_cycle;Signal;HPM_P1;HPM_P2
2022/07/12 00:08:10;;;;;;;1.70;1.00;;;;;;;15.01;88.28;98284.28;18438577;32;20046;-62
2022/07/12 00:18:13;;;;;;;1.40;1.10;;;;;;;14.88;88.69;98280.31;18438324;32;20049;-62
2022/07/12 00:28:15;;;;;;;1.10;0.90;;;;;;;14.74;89.44;98280.13;18438393;32;20405;-62
2022/07/12 00:38:18;;;;;;;1.53;1.20;;;;;;;14.63;90.19;98284.00;18437916;32;20064;-62
2022/07/12 00:48:20;;;;;;;2.07;1.60;;;;;;;14.53;90.82;98295.72;18437075;32;20080;-62
2022/07/12 00:58:23;;;;;;;1.50;1.37;;;;;;;14.43;91.82;98284.91;18496819;32;20053;-62
2022/07/12 01:08:27;;;;;;;1.73;1.23;;;;;;;14.37;92.28;98275.94;18500173;32;20424;-62
2022/07/12 01:18:30;;;;;;;1.63;1.10;;;;;;;14.31;92.57;98276.28;18500131;32;20060;-62
2022/07/12 01:28:32;;;;;;;2.50;1.80;;;;;;;14.17;93.16;98281.47;18498997;32;20089;-62
2022/07/12 01:38:35;;;;;;;4.60;1.57;;;;;;;14.05;93.08;98282.62;18498354;32;20061;-62
2022/07/12 01:48:37;;;;;;;3.57;1.60;;;;;;;13.96;93.50;98289.72;18497924;32;20056;-61
2022/07/12 01:58:40;;;;;;;2.00;1.70;;;;;;;13.87;93.92;98289.47;18497163;32;20045;-62
2022/07/12 02:08:42;;;;;;;2.50;1.80;;;;;;;13.80;94.34;98291.69;18496730;32;20057;-62
2022/07/12 02:18:45;;;;;;;1.70;1.40;;;;;;;13.72;94.88;98297.69;18496656;32;20065;-61
2022/07/12 02:28:47;;;;;;;2.10;1.87;;;;;;;13.61;95.66;98306.91;18496302;32;20053;-62
2022/07/12 02:38:50;;;;;;;3.93;2.20;;;;;;;13.49;95.63;98293.63;18495666;32;20056;-62
2022/07/12 02:48:52;;;;;;;2.43;2.17;;;;;;;13.36;95.78;98284.97;18495774;32;20046;-62
2022/07/12 02:58:54;;;;;;;2.57;1.97;;;;;;;13.25;95.90;98299.59;18481033;32;20057;-62
2022/07/12 03:08:57;;;;;;;3.33;2.03;;;;;;;13.18;96.39;98305.31;18481116;32;20101;-62
2022/07/12 03:18:59;;;;;;;2.87;2.20;;;;;;;13.13;96.44;98318.88;18487645;32;20377;-62
2022/07/12 03:29:01;;;;;;;3.63;2.20;;;;;;;13.15;97.11;98316.69;18492626;32;20083;-62
2022/07/12 03:39:04;;;;;;;2.47;1.93;;;;;;;13.17;97.98;98314.53;18505745;32;20053;-62
2022/07/12 03:49:06;;;;;;;2.77;2.20;;;;;;;13.17;97.93;98313.69;18490662;32;20049;-62
2022/07/12 03:59:08;;;;;;;2.53;2.20;;;;;;;13.08;98.23;98329.72;18503541;32;20519;-62
2022/07/12 04:09:11;;;;;;;3.30;2.30;;;;;;;13.04;98.37;98334.06;18489771;32;20037;-62
2022/07/12 04:19:13;;;;;;;2.83;2.40;;;;;;;13.11;98.25;98323.75;18503408;32;20045;-62
2022/07/12 04:29:17;;;;;;;3.00;2.50;;;;;;;13.19;98.16;98325.94;18487706;32;20101;-62
2022/07/12 04:39:19;;;;;;;3.43;2.57;;;;;;;13.16;98.20;98337.34;18502329;32;20045;-62
2022/07/12 04:49:21;;;;;;;3.23;2.60;;;;;;;13.33;98.09;98344.41;18499994;32;20045;-62
2022/07/12 04:59:25;;;;;;;4.67;2.67;;;;;;;13.62;97.39;98362.91;18500979;32;20049;-62
2022/07/12 05:09:28;;;;;;;4.03;2.60;;;;;;;13.83;96.30;98377.31;18500382;32;20097;-62
2022/07/12 05:19:30;;;;;;;3.73;2.70;;;;;;;14.02;96.48;98375.63;18499724;32;20053;-62
2022/07/12 05:29:33;;;;;;;3.40;1.93;;;;;;;14.41;95.29;98369.50;18499369;32;20104;-62
2022/07/12 05:39:35;;;;;;;2.20;2.00;;;;;;;14.84;94.33;98369.09;18498191;32;20072;-63
2022/07/12 05:49:45;;;;;;;3.45;2.20;;;;;;;15.45;92.74;98377.94;18483271;32;20061;-62
2022/07/12 05:59:48;;;;;;;2.53;1.77;;;;;;;16.12;90.81;98380.09;18497149;32;20061;-62
2022/07/12 06:09:51;;;;;;;5.53;3.07;;;;;;;17.06;89.17;98386.06;18497011;32;20425;-62
2022/07/12 06:19:53;;;;;;;4.63;3.40;;;;;;;17.98;82.96;98411.19;18496616;32;20079;-62
2022/07/12 06:29:56;;;;;;;3.37;2.53;;;;;;;18.83;80.95;98416.41;18496171;32;20120;-62
2022/07/12 06:39:59;;;;;;;4.20;3.25;;;;;;;19.42;76.31;98415.72;18481590;32;20045;-62
2022/07/12 06:50:03;;;;;;;4.65;3.05;;;;;;;20.00;72.18;98418.72;18497723;32;20098;-62
2022/07/12 07:00:06;;;;;;;4.57;2.28;;;;;;;20.13;66.13;98426.88;18493712;32;20070;-62
2022/07/12 07:10:10;;;;;;;2.10;1.83;;;;;;;20.50;65.50;98426.72;18493548;32;20049;-62
2022/07/12 07:20:13;;;;;;;4.30;2.75;;;;;;;20.87;63.38;98429.28;18492592;32;20496;-62
2022/07/12 07:40:37;;;;;;;3.37;2.20;;;;;;;21.41;62.05;98448.31;18505911;32;20057;-63
2022/07/12 07:50:39;;;;;;;2.53;1.85;;;;;;;21.94;60.14;98451.88;18505421;32;20041;-62
2022/07/12 08:00:42;;;;;;;1.60;1.08;;;;;;;22.47;58.38;98444.31;18504521;32;20076;-63
2022/07/12 08:10:48;;;;;;;1.15;1.02;;;;;;;22.77;56.67;98458.94;18504317;32;20091;-62
2022/07/12 08:20:51;;;;;;;1.05;0.90;;;;;;;23.10;55.12;98454.72;18503974;32;20338;-62
2022/07/12 08:30:54;;;;;;;2.33;1.25;;;;;;;23.34;54.35;98443.88;18503417;32;20041;-62
2022/07/12 08:40:56;;;;;;;1.67;0.98;;;;;;;23.57;52.82;98448.22;18488103;32;20104;-62
2022/07/12 08:51:02;;;;;;;1.12;1.00;;;;;;;23.82;51.58;98449.97;18487631;32;20053;-62
2022/07/12 09:01:05;;;;;;;3.37;1.40;;;;;;;24.13;51.85;98443.22;18501085;32;20079;-63
2022/07/12 09:11:08;;;;;;;4.72;1.12;;;;;;;24.56;49.45;98441.09;18499811;32;20116;-63
2022/07/12 09:21:29;;;;;;;1.65;1.23;;;;;;;24.90;49.48;98450.12;18498971;32;20452;-63
2022/07/12 09:42:11;;;;;;;1.48;1.10;;;;;;;25.58;46.52;98454.16;18498456;32;20049;-63
2022/07/12 09:52:25;;;;;;;2.12;1.48;;;;;;;26.06;47.54;98454.34;18497629;32;20379;-62
2022/07/12 10:02:27;;;;;;;2.53;1.45;;;;;;;26.25;43.50;98459.22;18497375;32;20083;-62
2022/07/12 10:12:32;;;;;;;3.28;1.80;;;;;;;26.25;44.52;98462.00;18496734;32;20052;-62
2022/07/12 10:22:34;;;;;;;3.55;1.83;;;;;;;26.29;44.35;98464.88;18495879;32;20045;-62
2022/07/12 10:32:44;;;;;;;2.22;1.50;;;;;;;26.40;42.97;98476.25;18495397;32;20065;-62
2022/07/12 10:43:06;;;;;;;3.45;2.00;;;;;;;26.63;44.77;98477.25;18495790;32;20063;-62
2022/07/12 10:53:23;;;;;;;1.80;1.47;;;;;;;27.04;44.24;98479.84;18495257;32;20041;-62
2022/07/12 11:03:49;;;;;;;2.37;1.85;;;;;;;27.05;44.50;98459.25;18494210;32;20041;-62
2022/07/12 11:13:52;;;;;;;2.05;1.80;;;;;;;27.50;44.10;98455.13;18481183;32;20056;-62
2022/07/12 11:23:54;;;;;;;2.37;1.67;;;;;;;27.55;41.79;98442.94;18494384;32;20361;-61
2022/07/12 11:33:57;;;;;;;3.22;1.95;;;;;;;27.85;44.64;98443.12;18480784;32;20353;-62
2022/07/12 11:44:00;;;;;;;3.72;1.80;;;;;;;28.23;42.01;98443.47;18491650;32;20060;-62
2022/07/12 11:54:03;;;;;;;3.17;2.20;;;;;;;28.71;44.00;98435.59;18490968;32;20083;-62
2022/07/12 12:04:12;;;;;;;4.07;2.15;;;;;;;28.99;40.10;98440.00;18504451;32;20435;-62
2022/07/12 12:14:16;;;;;;;3.25;2.17;;;;;;;29.01;38.35;98434.06;18503779;32;20053;-61
2022/07/12 12:24:19;;;;;;;2.50;1.70;;;;;;;28.96;39.08;98435.19;18503100;32;20050;-62
2022/07/12 12:34:22;;;;;;;2.42;1.70;;;;;;;29.58;39.04;98442.44;18502820;32;20045;-62
2022/07/12 12:44:26;;;;;;;2.25;1.65;;;;;;;30.34;36.95;98432.94;18502255;32;20072;-62
2022/07/12 12:54:37;;;;;;;3.28;1.42;;;;;;;29.69;38.40;98423.06;18500842;32;20441;-62
2022/07/12 13:04:41;;;;;;;2.50;1.50;;;;;;;30.52;39.93;98412.78;18500907;32;20463;-61
2022/07/12 13:14:43;;;;;;;3.33;1.90;;;;;;;30.97;33.49;98412.72;18500117;32;20090;-61
2022/07/12 13:24:47;;;;;;;2.28;1.48;;;;;;;31.42;36.29;98407.81;18499468;32;20131;-61
2022/07/12 13:34:50;;;;;;;2.05;1.83;;;;;;;31.33;32.47;98402.59;18499100;32;20073;-61
2022/07/12 13:56:03;;;;;;;3.08;1.60;;;;;;;32.61;33.53;98402.53;18497565;32;20037;-61
2022/07/12 14:06:07;;;;;;;2.08;1.80;;;;;;;33.40;33.69;98402.41;18470287;32;20521;-61
2022/07/12 14:16:10;;;;;;;2.65;1.73;;;;;;;34.19;34.10;98389.19;18482636;32;20057;-61
2022/07/12 14:26:13;;;;;;;3.37;1.98;;;;;;;34.75;32.90;98384.31;18482162;32;20045;-61
2022/07/12 14:36:15;;;;;;;2.58;1.98;;;;;;;34.96;31.72;98388.19;18481875;32;20377;-61
2022/07/12 14:46:18;;;;;;;3.83;1.87;;;;;;;34.67;34.39;98374.38;18481127;32;20037;-61
2022/07/12 14:56:21;;;;;;;2.50;1.70;;;;;;;34.30;27.91;98370.28;18481156;32;20109;-61
2022/07/12 15:06:26;;;;;;;5.95;2.05;;;;;;;33.61;31.09;98359.44;18494939;32;20072;-61
2022/07/12 15:16:29;;;;;;;3.00;1.87;;;;;;;31.93;32.51;98345.31;18504327;32;20064;-61
2022/07/12 15:26:32;;;;;;;2.35;1.98;;;;;;;31.12;33.38;98352.19;18506915;32;20045;-61
2022/07/12 15:36:35;;;;;;;3.37;1.90;;;;;;;30.18;35.30;98329.97;18479615;32;20429;-61
2022/07/12 15:46:38;;;;;;;2.72;1.90;;;;;;;29.77;36.85;98320.81;18505481;32;20424;-61
2022/07/12 15:56:42;;;;;;;7.82;1.98;;;;;;;29.37;37.05;98326.75;18504775;32;20052;-61
2022/07/12 16:06:46;;;;;;;1.87;1.48;;;;;;;29.00;38.22;98323.84;18504331;32;20080;-61
2022/07/12 16:16:50;;;;;;;3.75;1.77;;;;;;;28.88;38.13;98328.50;18504060;32;20049;-61
2022/07/12 16:26:54;;;;;;;2.45;1.70;;;;;;;28.15;39.09;98324.94;18503166;32;20186;-61
2022/07/12 16:36:57;;;;;;;4.90;1.40;;;;;;;28.06;38.75;98333.56;18489191;32;20388;-61
2022/07/12 16:46:59;;;;;;;2.78;2.00;;;;;;;28.40;37.87;98333.72;18500758;32;20382;-61
2022/07/12 16:57:02;;;;;;;4.12;1.95;;;;;;;28.23;39.08;98326.69;18501441;32;20064;-62
2022/07/12 17:07:05;;;;;;;4.03;1.83;;;;;;;27.87;39.06;98331.59;18500718;32;20346;-61
2022/07/12 17:17:07;;;;;;;2.25;1.42;;;;;;;27.43;41.49;98343.09;18473514;32;20052;-62
2022/07/12 17:27:10;;;;;;;2.05;1.30;;;;;;;27.26;40.83;98339.56;18499558;32;20112;-61
2022/07/12 17:37:12;;;;;;;1.90;1.35;;;;;;;26.96;41.75;98334.56;18484427;32;20082;-62
2022/07/12 17:47:15;;;;;;;2.47;1.23;;;;;;;26.71;43.12;98340.34;18498069;32;20044;-62
2022/07/12 17:57:18;;;;;;;2.67;1.37;;;;;;;26.70;43.09;98344.28;18497773;32;20090;-62
2022/07/12 18:07:22;;;;;;;2.25;1.35;;;;;;;26.97;42.57;98346.44;18497370;32;20373;-61
2022/07/12 18:27:46;;;;;;;1.83;1.10;;;;;;;29.07;37.72;98362.94;18482318;32;20440;-62
2022/07/12 18:37:50;;;;;;;1.92;0.90;;;;;;;26.67;42.69;98344.19;18482062;32;20098;-61
2022/07/12 18:47:52;;;;;;;1.65;1.45;;;;;;;25.53;47.84;98346.41;18500806;32;20072;-61
2022/07/12 18:57:55;;;;;;;2.35;1.17;;;;;;;24.82;50.75;98348.72;18442968;32;20053;-62
2022/07/12 19:07:57;;;;;;;1.35;0.90;;;;;;;24.19;51.09;98330.50;18429763;32;20290;-62
2022/07/12 19:18:00;;;;;;;2.17;1.00;;;;;;;23.75;51.52;98341.19;18442808;32;20053;-61
2022/07/12 19:28:03;;;;;;;2.45;1.10;;;;;;;23.27;55.37;98352.53;18454790;32;20417;-62
2022/07/12 19:38:09;;;;;;;1.62;1.10;;;;;;;22.55;59.95;98358.03;18441884;32;20108;-62
2022/07/12 19:48:11;;;;;;;2.50;1.33;;;;;;;21.85;62.08;98374.81;18440201;32;20104;-61
2022/07/12 19:58:14;;;;;;;1.57;1.23;;;;;;;21.28;64.05;98378.56;18439172;32;20099;-61
2022/07/12 20:08:17;;;;;;;2.07;1.70;;;;;;;20.76;66.90;98382.88;18439266;32;20151;-61
2022/07/12 20:18:19;;;;;;;1.87;1.20;;;;;;;20.29;69.05;98394.31;18438223;32;20528;-62
2022/07/12 20:28:23;;;;;;;2.60;1.60;;;;;;;19.97;71.33;98393.50;18438890;32;20061;-62
2022/07/12 20:38:25;;;;;;;2.20;0.93;;;;;;;19.60;72.46;98394.72;18437393;32;20145;-61
2022/07/12 20:48:28;;;;;;;2.92;1.15;;;;;;;19.21;72.71;98388.75;18436646;32;20040;-61
2022/07/12 20:58:34;;;;;;;2.33;1.23;;;;;;;18.89;74.18;98398.75;18435686;32;20125;-62
2022/07/12 21:08:37;;;;;;;3.45;1.30;;;;;;;18.63;74.59;98390.25;18435841;32;20413;-61
2022/07/12 21:18:40;;;;;;;1.10;0.90;;;;;;;18.37;75.54;98387.22;18435744;32;20064;-62
2022/07/12 21:28:44;;;;;;;1.15;0.95;;;;;;;18.08;76.61;98389.09;18433603;32;20068;-62
2022/07/12 21:38:47;;;;;;;2.15;1.00;;;;;;;17.79;77.68;98392.87;18434656;32;20068;-61
2022/07/12 21:48:51;;;;;;;1.27;0.93;;;;;;;17.57;78.72;98379.03;18432657;32;20087;-62
2022/07/12 21:58:53;;;;;;;1.17;1.08;;;;;;;17.34;79.90;98391.69;18496894;32;20432;-61
2022/07/12 22:08:57;;;;;;;1.75;1.10;;;;;;;17.07;80.62;98387.72;18497503;32;20037;-61
2022/07/12 22:18:59;;;;;;;1.92;0.80;;;;;;;16.88;81.55;98385.75;18496931;32;20087;-62
2022/07/12 22:29:02;;;;;;;3.58;0.80;;;;;;;16.69;82.49;98390.38;18496290;32;20334;-62
2022/07/12 22:39:04;;;;;;;1.85;0.70;;;;;;;16.52;83.58;98390.84;18496226;32;20072;-62
2022/07/12 22:49:07;;;;;;;2.75;1.00;;;;;;;16.29;83.82;98398.75;18481717;32;20098;-62
2022/07/12 22:59:10;;;;;;;1.58;0.80;;;;;;;16.11;84.78;98392.13;18495515;32;20410;-61
2022/07/12 23:09:12;;;;;;;1.30;1.00;;;;;;;15.92;85.91;98394.75;18494814;32;20094;-62
2022/07/12 23:19:15;;;;;;;1.52;0.82;;;;;;;15.75;86.84;98400.63;18480987;32;20048;-62
2022/07/12 23:29:17;;;;;;;1.23;0.95;;;;;;;15.54;87.36;98406.22;18494374;32;20053;-61
2022/07/12 23:39:19;;;;;;;1.42;0.88;;;;;;;15.41;87.97;98393.25;18491245;32;20415;-62
2022/07/12 23:49:21;;;;;;;1.30;0.90;;;;;;;15.25;88.49;98396.09;18505588;32;20479;-62
2022/07/12 23:59:24;;;;;;;1.12;0.85;;;;;;;15.13;88.89;98397.50;18504113;32;20044;-61
